sensor_id;sensor_type;location;lat;lon;timestamp;P1;durP1;ratioP1;P2;durP2;ratioP2
78296;SDS011;67555;47.660;19.622;2023-07-13T00:00:28;8.82;;;3.80;;
78296;SDS011;67555;47.660;19.622;2023-07-13T00:02:54;5.20;;;3.88;;
78296;SDS011;67555;47.660;19.622;2023-07-13T00:05:20;3.83;;;2.60;;
78296;SDS011;67555;47.660;19.622;2023-07-13T00:07:47;3.85;;;2.80;;
78296;SDS011;67555;47.660;19.622;2023-07-13T00:10:13;3.10;;;2.65;;
78296;SDS011;67555;47.660;19.622;2023-07-13T00:12:39;3.45;;;3.15;;
78296;SDS011;67555;47.660;19.622;2023-07-13T00:15:06;4.20;;;3.38;;
78296;SDS011;67555;47.660;19.622;2023-07-13T00:17:36;3.85;;;3.55;;
78296;SDS011;67555;47.660;19.622;2023-07-13T00:20:04;4.00;;;3.60;;
78296;SDS011;67555;47.660;19.622;2023-07-13T00:22:31;3.53;;;3.22;;
78296;SDS011;67555;47.660;19.622;2023-07-13T00:24:57;3.63;;;3.33;;
78296;SDS011;67555;47.660;19.622;2023-07-13T00:27:24;3.58;;;3.25;;
78296;SDS011;67555;47.660;19.622;2023-07-13T00:29:51;5.97;;;3.00;;
78296;SDS011;67555;47.660;19.622;2023-07-13T00:32:17;5.90;;;3.20;;
78296;SDS011;67555;47.660;19.622;2023-07-13T00:34:44;4.22;;;3.67;;
78296;SDS011;67555;47.660;19.622;2023-07-13T00:37:09;3.55;;;3.25;;
78296;SDS011;67555;47.660;19.622;2023-07-13T00:39:36;4.75;;;3.55;;
78296;SDS011;67555;47.660;19.622;2023-07-13T00:42:02;3.13;;;2.28;;
78296;SDS011;67555;47.660;19.622;2023-07-13T00:44:29;3.95;;;2.72;;
78296;SDS011;67555;47.660;19.622;2023-07-13T00:46:55;3.78;;;2.47;;
78296;SDS011;67555;47.660;19.622;2023-07-13T00:49:23;4.97;;;2.95;;
78296;SDS011;67555;47.660;19.622;2023-07-13T00:51:53;3.63;;;3.13;;
78296;SDS011;67555;47.660;19.622;2023-07-13T00:54:23;2.60;;;2.28;;
78296;SDS011;67555;47.660;19.622;2023-07-13T00:56:53;3.20;;;2.90;;
78296;SDS011;67555;47.660;19.622;2023-07-13T00:59:22;3.22;;;2.78;;
78296;SDS011;67555;47.660;19.622;2023-07-13T01:01:50;3.50;;;2.35;;
78296;SDS011;67555;47.660;19.622;2023-07-13T01:04:16;3.08;;;2.20;;
78296;SDS011;67555;47.660;19.622;2023-07-13T01:06:42;3.45;;;2.50;;
78296;SDS011;67555;47.660;19.622;2023-07-13T01:09:09;5.97;;;2.65;;
78296;SDS011;67555;47.660;19.622;2023-07-13T01:11:36;2.92;;;2.05;;
78296;SDS011;67555;47.660;19.622;2023-07-13T01:14:03;2.55;;;2.20;;
78296;SDS011;67555;47.660;19.622;2023-07-13T01:16:31;2.90;;;2.30;;
78296;SDS011;67555;47.660;19.622;2023-07-13T01:18:58;2.42;;;2.20;;
78296;SDS011;67555;47.660;19.622;2023-07-13T01:21:27;3.95;;;2.15;;
78296;SDS011;67555;47.660;19.622;2023-07-13T01:23:53;3.03;;;2.17;;
78296;SDS011;67555;47.660;19.622;2023-07-13T01:26:19;2.80;;;2.40;;
78296;SDS011;67555;47.660;19.622;2023-07-13T01:28:45;2.53;;;2.20;;
78296;SDS011;67555;47.660;19.622;2023-07-13T01:31:11;5.47;;;2.17;;
78296;SDS011;67555;47.660;19.622;2023-07-13T01:33:37;3.50;;;2.30;;
78296;SDS011;67555;47.660;19.622;2023-07-13T01:38:32;3.67;;;2.22;;
78296;SDS011;67555;47.660;19.622;2023-07-13T01:40:59;4.85;;;2.45;;
78296;SDS011;67555;47.660;19.622;2023-07-13T01:43:25;3.40;;;2.08;;
78296;SDS011;67555;47.660;19.622;2023-07-13T01:45:51;2.20;;;1.83;;
78296;SDS011;67555;47.660;19.622;2023-07-13T01:48:17;4.28;;;2.53;;
78296;SDS011;67555;47.660;19.622;2023-07-13T01:50:43;2.42;;;1.90;;
78296;SDS011;67555;47.660;19.622;2023-07-13T01:53:09;2.17;;;1.77;;
78296;SDS011;67555;47.660;19.622;2023-07-13T01:55:35;3.33;;;2.10;;
78296;SDS011;67555;47.660;19.622;2023-07-13T01:58:01;4.50;;;2.10;;
78296;SDS011;67555;47.660;19.622;2023-07-13T02:00:28;2.65;;;2.40;;
78296;SDS011;67555;47.660;19.622;2023-07-13T02:02:53;3.58;;;2.05;;
78296;SDS011;67555;47.660;19.622;2023-07-13T02:05:19;2.67;;;2.13;;
78296;SDS011;67555;47.660;19.622;2023-07-13T02:07:45;4.10;;;2.25;;
78296;SDS011;67555;47.660;19.622;2023-07-13T02:10:11;2.38;;;2.13;;
78296;SDS011;67555;47.660;19.622;2023-07-13T02:12:37;3.08;;;2.10;;
78296;SDS011;67555;47.660;19.622;2023-07-13T02:15:04;2.88;;;2.10;;
78296;SDS011;67555;47.660;19.622;2023-07-13T02:17:30;2.10;;;1.90;;
78296;SDS011;67555;47.660;19.622;2023-07-13T02:19:57;3.45;;;2.30;;
78296;SDS011;67555;47.660;19.622;2023-07-13T02:22:23;2.28;;;2.08;;
78296;SDS011;67555;47.660;19.622;2023-07-13T02:24:49;3.08;;;2.30;;
78296;SDS011;67555;47.660;19.622;2023-07-13T02:27:15;2.80;;;2.20;;
78296;SDS011;67555;47.660;19.622;2023-07-13T02:29:41;2.83;;;2.17;;
78296;SDS011;67555;47.660;19.622;2023-07-13T02:32:07;2.80;;;2.13;;
78296;SDS011;67555;47.660;19.622;2023-07-13T02:34:33;3.05;;;2.22;;
78296;SDS011;67555;47.660;19.622;2023-07-13T02:36:59;3.35;;;2.20;;
78296;SDS011;67555;47.660;19.622;2023-07-13T02:39:25;2.03;;;1.80;;
78296;SDS011;67555;47.660;19.622;2023-07-13T02:41:50;3.60;;;2.50;;
78296;SDS011;67555;47.660;19.622;2023-07-13T02:44:16;6.00;;;2.47;;
78296;SDS011;67555;47.660;19.622;2023-07-13T02:46:42;3.58;;;2.30;;
78296;SDS011;67555;47.660;19.622;2023-07-13T02:49:07;2.83;;;2.08;;
78296;SDS011;67555;47.660;19.622;2023-07-13T02:51:33;2.80;;;2.33;;
78296;SDS011;67555;47.660;19.622;2023-07-13T02:54:00;5.05;;;2.28;;
78296;SDS011;67555;47.660;19.622;2023-07-13T02:56:27;2.85;;;2.30;;
78296;SDS011;67555;47.660;19.622;2023-07-13T02:58:54;3.30;;;2.28;;
78296;SDS011;67555;47.660;19.622;2023-07-13T03:01:20;4.00;;;2.60;;
78296;SDS011;67555;47.660;19.622;2023-07-13T03:03:47;2.83;;;2.20;;
78296;SDS011;67555;47.660;19.622;2023-07-13T03:06:13;5.93;;;2.20;;
78296;SDS011;67555;47.660;19.622;2023-07-13T03:08:40;2.30;;;2.03;;
78296;SDS011;67555;47.660;19.622;2023-07-13T03:11:08;2.25;;;2.00;;
78296;SDS011;67555;47.660;19.622;2023-07-13T03:13:39;3.63;;;2.33;;
78296;SDS011;67555;47.660;19.622;2023-07-13T03:16:06;2.92;;;2.45;;
78296;SDS011;67555;47.660;19.622;2023-07-13T03:18:32;2.90;;;2.38;;
78296;SDS011;67555;47.660;19.622;2023-07-13T03:20:58;3.78;;;2.50;;
78296;SDS011;67555;47.660;19.622;2023-07-13T03:23:25;3.83;;;2.40;;
78296;SDS011;67555;47.660;19.622;2023-07-13T03:26:00;3.33;;;2.03;;
78296;SDS011;67555;47.660;19.622;2023-07-13T03:28:27;4.78;;;2.45;;
78296;SDS011;67555;47.660;19.622;2023-07-13T03:31:12;2.50;;;2.10;;
78296;SDS011;67555;47.660;19.622;2023-07-13T03:33:43;2.95;;;2.10;;
78296;SDS011;67555;47.660;19.622;2023-07-13T03:36:12;2.65;;;2.15;;
78296;SDS011;67555;47.660;19.622;2023-07-13T03:38:41;2.83;;;1.95;;
78296;SDS011;67555;47.660;19.622;2023-07-13T03:41:07;5.53;;;2.38;;
78296;SDS011;67555;47.660;19.622;2023-07-13T03:43:32;3.35;;;2.28;;
78296;SDS011;67555;47.660;19.622;2023-07-13T03:45:58;2.63;;;1.92;;
78296;SDS011;67555;47.660;19.622;2023-07-13T03:48:24;3.55;;;2.50;;
78296;SDS011;67555;47.660;19.622;2023-07-13T03:50:49;2.90;;;2.00;;
78296;SDS011;67555;47.660;19.622;2023-07-13T03:53:15;3.22;;;2.20;;
78296;SDS011;67555;47.660;19.622;2023-07-13T03:55:41;2.75;;;2.38;;
78296;SDS011;67555;47.660;19.622;2023-07-13T04:00:53;3.72;;;2.15;;
78296;SDS011;67555;47.660;19.622;2023-07-13T04:03:19;3.28;;;2.20;;
78296;SDS011;67555;47.660;19.622;2023-07-13T04:05:45;2.47;;;2.28;;
78296;SDS011;67555;47.660;19.622;2023-07-13T04:08:11;2.25;;;1.95;;
78296;SDS011;67555;47.660;19.622;2023-07-13T04:10:37;2.58;;;2.03;;
78296;SDS011;67555;47.660;19.622;2023-07-13T04:13:03;3.30;;;2.17;;
78296;SDS011;67555;47.660;19.622;2023-07-13T04:15:30;2.97;;;2.10;;
78296;SDS011;67555;47.660;19.622;2023-07-13T04:17:57;5.28;;;2.30;;
78296;SDS011;67555;47.660;19.622;2023-07-13T04:20:24;3.67;;;2.53;;
78296;SDS011;67555;47.660;19.622;2023-07-13T04:22:50;3.03;;;2.35;;
78296;SDS011;67555;47.660;19.622;2023-07-13T04:25:18;4.95;;;2.42;;
78296;SDS011;67555;47.660;19.622;2023-07-13T04:27:44;4.35;;;2.30;;
78296;SDS011;67555;47.660;19.622;2023-07-13T04:30:10;3.30;;;2.15;;
78296;SDS011;67555;47.660;19.622;2023-07-13T04:32:36;3.72;;;2.50;;
78296;SDS011;67555;47.660;19.622;2023-07-13T04:35:01;3.58;;;1.92;;
78296;SDS011;67555;47.660;19.622;2023-07-13T04:37:27;4.72;;;2.47;;
78296;SDS011;67555;47.660;19.622;2023-07-13T04:39:54;2.90;;;2.58;;
78296;SDS011;67555;47.660;19.622;2023-07-13T04:42:20;3.20;;;2.30;;
78296;SDS011;67555;47.660;19.622;2023-07-13T04:44:49;7.15;;;2.50;;
78296;SDS011;67555;47.660;19.622;2023-07-13T04:47:16;4.35;;;2.20;;
78296;SDS011;67555;47.660;19.622;2023-07-13T04:49:42;3.17;;;2.10;;
78296;SDS011;67555;47.660;19.622;2023-07-13T04:52:08;3.60;;;2.40;;
78296;SDS011;67555;47.660;19.622;2023-07-13T04:54:34;3.58;;;2.05;;
78296;SDS011;67555;47.660;19.622;2023-07-13T04:57:00;2.63;;;2.20;;
78296;SDS011;67555;47.660;19.622;2023-07-13T04:59:26;2.65;;;2.13;;
78296;SDS011;67555;47.660;19.622;2023-07-13T05:01:52;4.05;;;2.30;;
78296;SDS011;67555;47.660;19.622;2023-07-13T05:04:18;3.13;;;2.38;;
78296;SDS011;67555;47.660;19.622;2023-07-13T05:06:44;4.28;;;2.42;;
78296;SDS011;67555;47.660;19.622;2023-07-13T05:09:10;2.83;;;2.22;;
78296;SDS011;67555;47.660;19.622;2023-07-13T05:11:37;3.03;;;2.20;;
78296;SDS011;67555;47.660;19.622;2023-07-13T05:14:03;4.13;;;2.40;;
78296;SDS011;67555;47.660;19.622;2023-07-13T05:16:29;2.50;;;2.00;;
78296;SDS011;67555;47.660;19.622;2023-07-13T05:18:54;3.50;;;2.20;;
78296;SDS011;67555;47.660;19.622;2023-07-13T05:21:20;3.20;;;2.20;;
78296;SDS011;67555;47.660;19.622;2023-07-13T05:23:46;3.65;;;2.60;;
78296;SDS011;67555;47.660;19.622;2023-07-13T05:26:12;3.08;;;2.70;;
78296;SDS011;67555;47.660;19.622;2023-07-13T05:28:38;4.07;;;2.55;;
78296;SDS011;67555;47.660;19.622;2023-07-13T05:31:04;3.33;;;2.40;;
78296;SDS011;67555;47.660;19.622;2023-07-13T05:33:32;2.95;;;2.58;;
78296;SDS011;67555;47.660;19.622;2023-07-13T05:35:57;3.40;;;2.55;;
78296;SDS011;67555;47.660;19.622;2023-07-13T05:38:25;3.50;;;2.30;;
78296;SDS011;67555;47.660;19.622;2023-07-13T05:40:52;4.65;;;2.33;;
78296;SDS011;67555;47.660;19.622;2023-07-13T05:43:20;3.15;;;2.33;;
78296;SDS011;67555;47.660;19.622;2023-07-13T05:45:46;2.42;;;2.22;;
78296;SDS011;67555;47.660;19.622;2023-07-13T05:48:12;3.22;;;2.53;;
78296;SDS011;67555;47.660;19.622;2023-07-13T05:50:38;5.50;;;2.28;;
78296;SDS011;67555;47.660;19.622;2023-07-13T05:53:05;3.22;;;1.90;;
78296;SDS011;67555;47.660;19.622;2023-07-13T05:55:31;3.50;;;2.50;;
78296;SDS011;67555;47.660;19.622;2023-07-13T05:57:57;4.70;;;2.30;;
78296;SDS011;67555;47.660;19.622;2023-07-13T06:00:23;2.47;;;1.60;;
78296;SDS011;67555;47.660;19.622;2023-07-13T06:02:49;2.97;;;1.92;;
78296;SDS011;67555;47.660;19.622;2023-07-13T06:05:16;3.58;;;2.05;;
78296;SDS011;67555;47.660;19.622;2023-07-13T06:07:42;1.20;;;1.10;;
78296;SDS011;67555;47.660;19.622;2023-07-13T06:10:08;1.85;;;1.45;;
78296;SDS011;67555;47.660;19.622;2023-07-13T06:12:34;2.10;;;1.90;;
78296;SDS011;67555;47.660;19.622;2023-07-13T06:15:00;1.50;;;1.40;;
78296;SDS011;67555;47.660;19.622;2023-07-13T06:17:26;1.38;;;1.27;;
78296;SDS011;67555;47.660;19.622;2023-07-13T06:19:51;3.53;;;2.00;;
78296;SDS011;67555;47.660;19.622;2023-07-13T06:22:17;1.80;;;1.65;;
78296;SDS011;67555;47.660;19.622;2023-07-13T06:24:43;1.30;;;1.20;;
78296;SDS011;67555;47.660;19.622;2023-07-13T06:27:09;3.17;;;1.48;;
78296;SDS011;67555;47.660;19.622;2023-07-13T06:29:34;2.72;;;1.58;;
78296;SDS011;67555;47.660;19.622;2023-07-13T06:32:00;2.60;;;1.63;;
78296;SDS011;67555;47.660;19.622;2023-07-13T06:34:26;3.10;;;1.67;;
78296;SDS011;67555;47.660;19.622;2023-07-13T06:36:52;3.25;;;1.63;;
78296;SDS011;67555;47.660;19.622;2023-07-13T06:39:17;2.40;;;1.20;;
78296;SDS011;67555;47.660;19.622;2023-07-13T06:41:43;1.25;;;1.15;;
78296;SDS011;67555;47.660;19.622;2023-07-13T06:44:09;1.33;;;1.10;;
78296;SDS011;67555;47.660;19.622;2023-07-13T06:46:34;2.60;;;2.08;;
78296;SDS011;67555;47.660;19.622;2023-07-13T06:49:00;3.63;;;1.42;;
78296;SDS011;67555;47.660;19.622;2023-07-13T06:51:26;2.05;;;1.38;;
78296;SDS011;67555;47.660;19.622;2023-07-13T06:53:52;1.98;;;1.58;;
78296;SDS011;67555;47.660;19.622;2023-07-13T06:56:17;1.52;;;1.42;;
78296;SDS011;67555;47.660;19.622;2023-07-13T06:58:43;2.38;;;1.38;;
78296;SDS011;67555;47.660;19.622;2023-07-13T07:01:09;2.10;;;1.50;;
78296;SDS011;67555;47.660;19.622;2023-07-13T07:03:35;1.25;;;1.15;;
78296;SDS011;67555;47.660;19.622;2023-07-13T07:06:18;1.30;;;1.20;;
78296;SDS011;67555;47.660;19.622;2023-07-13T07:08:45;1.30;;;1.20;;
78296;SDS011;67555;47.660;19.622;2023-07-13T07:11:12;2.38;;;1.50;;
78296;SDS011;67555;47.660;19.622;2023-07-13T07:13:39;1.63;;;1.40;;
78296;SDS011;67555;47.660;19.622;2023-07-13T07:16:05;3.53;;;1.60;;
78296;SDS011;67555;47.660;19.622;2023-07-13T07:18:31;1.70;;;1.38;;
78296;SDS011;67555;47.660;19.622;2023-07-13T07:20:57;2.08;;;1.50;;
78296;SDS011;67555;47.660;19.622;2023-07-13T07:23:23;1.60;;;1.50;;
78296;SDS011;67555;47.660;19.622;2023-07-13T07:25:49;2.13;;;1.55;;
78296;SDS011;67555;47.660;19.622;2023-07-13T07:28:15;2.20;;;1.80;;
78296;SDS011;67555;47.660;19.622;2023-07-13T07:30:45;1.92;;;1.50;;
78296;SDS011;67555;47.660;19.622;2023-07-13T07:33:11;1.85;;;1.60;;
78296;SDS011;67555;47.660;19.622;2023-07-13T07:35:37;2.40;;;1.70;;
78296;SDS011;67555;47.660;19.622;2023-07-13T07:38:03;1.70;;;1.60;;
78296;SDS011;67555;47.660;19.622;2023-07-13T07:40:29;2.72;;;1.80;;
78296;SDS011;67555;47.660;19.622;2023-07-13T07:42:56;2.50;;;2.20;;
78296;SDS011;67555;47.660;19.622;2023-07-13T07:45:22;2.78;;;1.90;;
78296;SDS011;67555;47.660;19.622;2023-07-13T07:47:48;2.70;;;1.90;;
78296;SDS011;67555;47.660;19.622;2023-07-13T07:50:14;3.15;;;1.92;;
78296;SDS011;67555;47.660;19.622;2023-07-13T07:52:40;2.30;;;1.80;;
78296;SDS011;67555;47.660;19.622;2023-07-13T07:55:06;1.70;;;1.48;;
78296;SDS011;67555;47.660;19.622;2023-07-13T07:57:33;3.00;;;1.60;;
78296;SDS011;67555;47.660;19.622;2023-07-13T07:59:59;2.28;;;1.88;;
78296;SDS011;67555;47.660;19.622;2023-07-13T08:02:25;2.35;;;1.52;;
78296;SDS011;67555;47.660;19.622;2023-07-13T08:04:51;1.40;;;1.30;;
78296;SDS011;67555;47.660;19.622;2023-07-13T08:07:17;1.55;;;1.45;;
78296;SDS011;67555;47.660;19.622;2023-07-13T08:09:43;1.83;;;1.60;;
78296;SDS011;67555;47.660;19.622;2023-07-13T08:12:09;1.50;;;1.40;;
78296;SDS011;67555;47.660;19.622;2023-07-13T08:14:35;1.60;;;1.42;;
78296;SDS011;67555;47.660;19.622;2023-07-13T08:17:01;3.10;;;1.38;;
78296;SDS011;67555;47.660;19.622;2023-07-13T08:19:27;1.67;;;1.58;;
78296;SDS011;67555;47.660;19.622;2023-07-13T08:21:52;1.90;;;1.70;;
78296;SDS011;67555;47.660;19.622;2023-07-13T08:24:18;2.58;;;1.63;;
78296;SDS011;67555;47.660;19.622;2023-07-13T08:26:48;1.55;;;1.40;;
78296;SDS011;67555;47.660;19.622;2023-07-13T08:29:15;1.30;;;1.20;;
78296;SDS011;67555;47.660;19.622;2023-07-13T08:31:41;2.20;;;1.30;;
78296;SDS011;67555;47.660;19.622;2023-07-13T08:34:06;1.30;;;1.20;;
78296;SDS011;67555;47.660;19.622;2023-07-13T08:36:32;2.45;;;1.20;;
78296;SDS011;67555;47.660;19.622;2023-07-13T08:38:58;1.75;;;1.17;;
78296;SDS011;67555;47.660;19.622;2023-07-13T08:41:24;2.00;;;1.25;;
78296;SDS011;67555;47.660;19.622;2023-07-13T08:43:51;1.50;;;1.40;;
78296;SDS011;67555;47.660;19.622;2023-07-13T08:46:25;1.67;;;1.38;;
78296;SDS011;67555;47.660;19.622;2023-07-13T08:49:03;1.63;;;1.48;;
78296;SDS011;67555;47.660;19.622;2023-07-13T08:51:41;2.33;;;1.42;;
78296;SDS011;67555;47.660;19.622;2023-07-13T08:56:55;1.23;;;1.13;;
78296;SDS011;67555;47.660;19.622;2023-07-13T08:59:24;1.52;;;1.30;;
78296;SDS011;67555;47.660;19.622;2023-07-13T09:02:01;1.63;;;1.52;;
78296;SDS011;67555;47.660;19.622;2023-07-13T09:04:50;1.35;;;1.25;;
78296;SDS011;67555;47.660;19.622;2023-07-13T09:07:31;2.15;;;1.30;;
78296;SDS011;67555;47.660;19.622;2023-07-13T09:10:17;1.23;;;1.13;;
78296;SDS011;67555;47.660;19.622;2023-07-13T09:15:29;1.88;;;1.30;;
78296;SDS011;67555;47.660;19.622;2023-07-13T09:17:59;1.70;;;1.50;;
78296;SDS011;67555;47.660;19.622;2023-07-13T09:20:42;1.98;;;1.48;;
78296;SDS011;67555;47.660;19.622;2023-07-13T09:23:17;2.20;;;1.48;;
78296;SDS011;67555;47.660;19.622;2023-07-13T09:25:47;2.22;;;1.40;;
78296;SDS011;67555;47.660;19.622;2023-07-13T09:28:24;1.50;;;1.33;;
78296;SDS011;67555;47.660;19.622;2023-07-13T09:31:01;1.50;;;1.40;;
78296;SDS011;67555;47.660;19.622;2023-07-13T09:33:35;1.77;;;1.35;;
78296;SDS011;67555;47.660;19.622;2023-07-13T09:36:01;1.38;;;1.27;;
78296;SDS011;67555;47.660;19.622;2023-07-13T09:38:39;2.13;;;1.65;;
78296;SDS011;67555;47.660;19.622;2023-07-13T09:41:26;1.45;;;1.30;;
78296;SDS011;67555;47.660;19.622;2023-07-13T09:44:00;0.93;;;0.93;;
78296;SDS011;67555;47.660;19.622;2023-07-13T09:46:38;1.63;;;1.30;;
78296;SDS011;67555;47.660;19.622;2023-07-13T09:49:11;3.08;;;1.20;;
78296;SDS011;67555;47.660;19.622;2023-07-13T09:51:41;2.03;;;1.45;;
78296;SDS011;67555;47.660;19.622;2023-07-13T09:54:19;1.33;;;1.23;;
78296;SDS011;67555;47.660;19.622;2023-07-13T09:56:46;1.45;;;1.35;;
78296;SDS011;67555;47.660;19.622;2023-07-13T09:59:30;1.63;;;1.40;;
78296;SDS011;67555;47.660;19.622;2023-07-13T10:02:01;2.38;;;1.45;;
78296;SDS011;67555;47.660;19.622;2023-07-13T10:07:08;1.13;;;1.02;;
78296;SDS011;67555;47.660;19.622;2023-07-13T10:09:38;1.50;;;1.30;;
78296;SDS011;67555;47.660;19.622;2023-07-13T10:12:04;1.13;;;1.02;;
78296;SDS011;67555;47.660;19.622;2023-07-13T10:14:42;2.88;;;1.33;;
78296;SDS011;67555;47.660;19.622;2023-07-13T10:17:10;1.83;;;1.45;;
78296;SDS011;67555;47.660;19.622;2023-07-13T10:19:39;1.42;;;1.30;;
78296;SDS011;67555;47.660;19.622;2023-07-13T10:24:42;1.85;;;1.40;;
78296;SDS011;67555;47.660;19.622;2023-07-13T10:27:23;2.33;;;1.60;;
78296;SDS011;67555;47.660;19.622;2023-07-13T10:32:44;2.00;;;1.40;;
78296;SDS011;67555;47.660;19.622;2023-07-13T10:35:12;2.03;;;1.50;;
78296;SDS011;67555;47.660;19.622;2023-07-13T10:37:49;2.55;;;1.48;;
78296;SDS011;67555;47.660;19.622;2023-07-13T10:40:25;3.17;;;1.60;;
78296;SDS011;67555;47.660;19.622;2023-07-13T10:42:57;2.05;;;1.55;;
78296;SDS011;67555;47.660;19.622;2023-07-13T10:45:33;1.48;;;1.30;;
78296;SDS011;67555;47.660;19.622;2023-07-13T10:50:26;2.25;;;1.50;;
78296;SDS011;67555;47.660;19.622;2023-07-13T10:52:55;1.63;;;1.48;;
78296;SDS011;67555;47.660;19.622;2023-07-13T11:00:51;1.88;;;1.55;;
78296;SDS011;67555;47.660;19.622;2023-07-13T11:03:19;2.13;;;1.70;;
78296;SDS011;67555;47.660;19.622;2023-07-13T11:05:51;1.88;;;1.60;;
78296;SDS011;67555;47.660;19.622;2023-07-13T11:08:38;1.92;;;1.65;;
78296;SDS011;67555;47.660;19.622;2023-07-13T11:18:54;2.83;;;1.63;;
78296;SDS011;67555;47.660;19.622;2023-07-13T11:29:52;2.03;;;1.58;;
78296;SDS011;67555;47.660;19.622;2023-07-13T11:35:00;1.52;;;1.38;;
78296;SDS011;67555;47.660;19.622;2023-07-13T11:37:25;2.20;;;1.33;;
78296;SDS011;67555;47.660;19.622;2023-07-13T11:39:53;1.70;;;1.40;;
78296;SDS011;67555;47.660;19.622;2023-07-13T11:42:20;1.30;;;1.20;;
78296;SDS011;67555;47.660;19.622;2023-07-13T11:44:47;2.22;;;1.50;;
78296;SDS011;67555;47.660;19.622;2023-07-13T11:47:17;1.60;;;1.40;;
78296;SDS011;67555;47.660;19.622;2023-07-13T11:49:47;3.33;;;1.65;;
78296;SDS011;67555;47.660;19.622;2023-07-13T11:52:19;1.92;;;1.60;;
78296;SDS011;67555;47.660;19.622;2023-07-13T11:54:49;1.83;;;1.52;;
78296;SDS011;67555;47.660;19.622;2023-07-13T12:00:00;1.63;;;1.48;;
78296;SDS011;67555;47.660;19.622;2023-07-13T12:02:35;1.92;;;1.55;;
78296;SDS011;67555;47.660;19.622;2023-07-13T12:05:04;1.67;;;1.20;;
78296;SDS011;67555;47.660;19.622;2023-07-13T12:07:32;1.35;;;1.20;;
78296;SDS011;67555;47.660;19.622;2023-07-13T12:12:34;1.63;;;1.40;;
78296;SDS011;67555;47.660;19.622;2023-07-13T12:15:11;2.53;;;1.70;;
78296;SDS011;67555;47.660;19.622;2023-07-13T12:17:37;1.42;;;1.30;;
78296;SDS011;67555;47.660;19.622;2023-07-13T12:20:07;2.53;;;2.05;;
78296;SDS011;67555;47.660;19.622;2023-07-13T12:22:49;2.38;;;1.60;;
78296;SDS011;67555;47.660;19.622;2023-07-13T12:25:16;2.15;;;1.40;;
78296;SDS011;67555;47.660;19.622;2023-07-13T12:27:46;1.90;;;1.52;;
78296;SDS011;67555;47.660;19.622;2023-07-13T12:30:25;1.15;;;1.05;;
78296;SDS011;67555;47.660;19.622;2023-07-13T12:32:59;1.17;;;1.10;;
78296;SDS011;67555;47.660;19.622;2023-07-13T12:35:38;1.48;;;1.35;;
78296;SDS011;67555;47.660;19.622;2023-07-13T12:38:11;1.95;;;1.60;;
78296;SDS011;67555;47.660;19.622;2023-07-13T12:40:37;2.05;;;1.13;;
78296;SDS011;67555;47.660;19.622;2023-07-13T12:43:09;1.75;;;1.38;;
78296;SDS011;67555;47.660;19.622;2023-07-13T12:45:40;1.30;;;1.20;;
78296;SDS011;67555;47.660;19.622;2023-07-13T12:48:43;1.45;;;1.35;;
78296;SDS011;67555;47.660;19.622;2023-07-13T12:51:13;1.58;;;1.30;;
78296;SDS011;67555;47.660;19.622;2023-07-13T12:53:41;1.55;;;1.40;;
78296;SDS011;67555;47.660;19.622;2023-07-13T12:56:15;3.05;;;2.45;;
78296;SDS011;67555;47.660;19.622;2023-07-13T12:58:45;3.10;;;2.50;;
78296;SDS011;67555;47.660;19.622;2023-07-13T13:01:15;2.17;;;1.85;;
78296;SDS011;67555;47.660;19.622;2023-07-13T13:03:48;1.50;;;1.33;;
78296;SDS011;67555;47.660;19.622;2023-07-13T13:08:45;1.80;;;1.50;;
78296;SDS011;67555;47.660;19.622;2023-07-13T13:11:22;1.40;;;1.30;;
78296;SDS011;67555;47.660;19.622;2023-07-13T13:13:48;1.60;;;1.50;;
78296;SDS011;67555;47.660;19.622;2023-07-13T13:16:20;1.40;;;1.10;;
78296;SDS011;67555;47.660;19.622;2023-07-13T13:21:23;1.50;;;1.20;;
78296;SDS011;67555;47.660;19.622;2023-07-13T13:23:50;1.95;;;1.30;;
78296;SDS011;67555;47.660;19.622;2023-07-13T13:26:23;2.45;;;1.38;;
78296;SDS011;67555;47.660;19.622;2023-07-13T13:28:49;2.22;;;1.50;;
78296;SDS011;67555;47.660;19.622;2023-07-13T13:31:15;2.25;;;1.50;;
78296;SDS011;67555;47.660;19.622;2023-07-13T13:33:41;1.30;;;1.15;;
78296;SDS011;67555;47.660;19.622;2023-07-13T13:36:17;1.70;;;1.35;;
78296;SDS011;67555;47.660;19.622;2023-07-13T13:38:45;1.42;;;1.33;;
78296;SDS011;67555;47.660;19.622;2023-07-13T13:41:12;2.72;;;1.15;;
78296;SDS011;67555;47.660;19.622;2023-07-13T13:43:39;1.52;;;1.38;;
78296;SDS011;67555;47.660;19.622;2023-07-13T13:46:11;2.00;;;1.45;;
78296;SDS011;67555;47.660;19.622;2023-07-13T13:48:43;1.83;;;1.27;;
78296;SDS011;67555;47.660;19.622;2023-07-13T13:51:15;1.50;;;1.40;;
78296;SDS011;67555;47.660;19.622;2023-07-13T13:53:49;3.90;;;1.52;;
78296;SDS011;67555;47.660;19.622;2023-07-13T13:56:15;1.30;;;1.20;;
78296;SDS011;67555;47.660;19.622;2023-07-13T13:58:42;1.50;;;1.40;;
78296;SDS011;67555;47.660;19.622;2023-07-13T14:01:18;1.50;;;1.40;;
78296;SDS011;67555;47.660;19.622;2023-07-13T14:03:47;1.60;;;1.45;;
78296;SDS011;67555;47.660;19.622;2023-07-13T14:06:16;1.30;;;1.20;;
78296;SDS011;67555;47.660;19.622;2023-07-13T14:08:42;1.80;;;1.30;;
78296;SDS011;67555;47.660;19.622;2023-07-13T14:11:12;3.17;;;1.52;;
78296;SDS011;67555;47.660;19.622;2023-07-13T14:13:40;1.50;;;1.40;;
78296;SDS011;67555;47.660;19.622;2023-07-13T14:16:17;2.58;;;1.50;;
78296;SDS011;67555;47.660;19.622;2023-07-13T14:18:45;2.72;;;1.30;;
78296;SDS011;67555;47.660;19.622;2023-07-13T14:21:16;1.65;;;1.25;;
78296;SDS011;67555;47.660;19.622;2023-07-13T14:23:44;3.03;;;1.80;;
78296;SDS011;67555;47.660;19.622;2023-07-13T14:26:11;1.40;;;1.30;;
78296;SDS011;67555;47.660;19.622;2023-07-13T14:28:43;2.42;;;1.65;;
78296;SDS011;67555;47.660;19.622;2023-07-13T14:31:12;1.80;;;1.50;;
78296;SDS011;67555;47.660;19.622;2023-07-13T14:33:39;1.58;;;1.40;;
78296;SDS011;67555;47.660;19.622;2023-07-13T14:38:54;2.33;;;1.45;;
78296;SDS011;67555;47.660;19.622;2023-07-13T14:41:21;1.50;;;1.40;;
78296;SDS011;67555;47.660;19.622;2023-07-13T14:43:47;1.50;;;1.40;;
78296;SDS011;67555;47.660;19.622;2023-07-13T14:46:18;1.85;;;1.20;;
78296;SDS011;67555;47.660;19.622;2023-07-13T14:48:57;2.28;;;1.50;;
78296;SDS011;67555;47.660;19.622;2023-07-13T14:51:25;1.88;;;1.50;;
78296;SDS011;67555;47.660;19.622;2023-07-13T14:53:51;2.05;;;1.52;;
78296;SDS011;67555;47.660;19.622;2023-07-13T14:56:17;2.47;;;1.60;;
78296;SDS011;67555;47.660;19.622;2023-07-13T14:58:42;1.60;;;1.45;;
78296;SDS011;67555;47.660;19.622;2023-07-13T15:01:12;2.08;;;1.67;;
78296;SDS011;67555;47.660;19.622;2023-07-13T15:03:43;1.73;;;1.42;;
78296;SDS011;67555;47.660;19.622;2023-07-13T15:06:13;2.10;;;1.50;;
78296;SDS011;67555;47.660;19.622;2023-07-13T15:08:40;2.10;;;1.52;;
78296;SDS011;67555;47.660;19.622;2023-07-13T15:11:06;1.30;;;1.20;;
78296;SDS011;67555;47.660;19.622;2023-07-13T15:13:33;2.67;;;1.48;;
78296;SDS011;67555;47.660;19.622;2023-07-13T15:16:00;3.65;;;1.65;;
78296;SDS011;67555;47.660;19.622;2023-07-13T15:18:26;1.58;;;1.48;;
78296;SDS011;67555;47.660;19.622;2023-07-13T15:20:53;1.98;;;1.50;;
78296;SDS011;67555;47.660;19.622;2023-07-13T15:23:20;1.77;;;1.50;;
78296;SDS011;67555;47.660;19.622;2023-07-13T15:25:47;2.20;;;1.65;;
78296;SDS011;67555;47.660;19.622;2023-07-13T15:28:14;2.03;;;1.52;;
78296;SDS011;67555;47.660;19.622;2023-07-13T15:33:16;1.80;;;1.50;;
78296;SDS011;67555;47.660;19.622;2023-07-13T15:38:29;1.65;;;1.50;;
78296;SDS011;67555;47.660;19.622;2023-07-13T15:40:56;2.08;;;1.60;;
78296;SDS011;67555;47.660;19.622;2023-07-13T15:43:22;2.13;;;1.63;;